You are listening to:
KLAS Tower (Both) - Las Vegas, Nevada, United States

KLAS 241956Z VRB06KT 10SM FEW110 FEW220 40/13 A3007 RMK AO2 SLP115 T04000133 $

If stream doesn't start automatically press the play button
If stream stops then reload player then press play